createdAt,value
2023-01-22T00:01:08.832Z,1.75
2023-01-22T00:03:36.256Z,1.69
2023-01-22T00:06:03.812Z,1.65
2023-01-22T00:08:31.139Z,1.62
2023-01-22T00:10:58.460Z,1.53
2023-01-22T00:13:26.558Z,1.48
2023-01-22T00:15:53.884Z,1.54
2023-01-22T00:18:22.497Z,1.61
2023-01-22T00:20:49.854Z,1.68
2023-01-22T00:23:17.516Z,1.69
2023-01-22T00:25:45.117Z,1.62
2023-01-22T00:28:12.700Z,1.67
2023-01-22T00:30:40.249Z,1.70
2023-01-22T00:33:07.565Z,1.73
2023-01-22T00:35:36.169Z,1.70
2023-01-22T00:38:04.871Z,1.67
2023-01-22T00:40:32.183Z,1.69
2023-01-22T00:42:59.446Z,1.60
2023-01-22T00:45:26.791Z,1.62
2023-01-22T00:47:54.091Z,1.66
2023-01-22T00:50:21.385Z,1.63
2023-01-22T00:52:49.985Z,1.61
2023-01-22T00:55:17.280Z,1.64
2023-01-22T00:57:44.628Z,1.71
2023-01-22T01:00:14.630Z,1.80
2023-01-22T01:02:56.170Z,1.66
2023-01-22T01:05:23.459Z,1.62
2023-01-22T01:07:52.093Z,1.70
2023-01-22T01:10:19.960Z,1.62
2023-01-22T01:12:47.487Z,1.71
2023-01-22T01:15:14.755Z,1.54
2023-01-22T01:17:42.058Z,1.66
2023-01-22T01:20:10.066Z,1.68
2023-01-22T01:22:37.373Z,1.84
2023-01-22T01:25:06.341Z,1.77
2023-01-22T01:27:33.624Z,1.80
2023-01-22T01:30:00.907Z,1.71
2023-01-22T01:32:28.174Z,1.76
2023-01-22T01:34:55.456Z,1.79
2023-01-22T01:37:22.757Z,1.70
2023-01-22T01:39:52.393Z,1.71
2023-01-22T01:42:29.107Z,1.69
2023-01-22T01:45:15.033Z,1.76
2023-01-22T01:47:42.303Z,1.70
2023-01-22T01:50:09.910Z,1.73
2023-01-22T01:52:37.350Z,1.67
2023-01-22T01:55:05.237Z,1.71
2023-01-22T01:57:35.023Z,1.71
2023-01-22T02:00:05.628Z,1.69
2023-01-22T02:02:32.915Z,1.71
2023-01-22T02:05:00.249Z,1.76
2023-01-22T02:07:27.581Z,1.80
2023-01-22T02:09:54.952Z,1.71
2023-01-22T02:12:22.235Z,1.81
2023-01-22T02:14:51.236Z,1.67
2023-01-22T02:17:20.359Z,1.76
2023-01-22T02:19:47.998Z,1.77
2023-01-22T02:22:18.370Z,1.75
2023-01-22T02:24:45.861Z,1.76
2023-01-22T02:27:13.176Z,1.74
2023-01-22T02:29:40.510Z,1.71
2023-01-22T02:32:08.260Z,1.73
2023-01-22T02:34:35.557Z,1.78
2023-01-22T02:37:02.848Z,1.74
2023-01-22T02:39:31.454Z,1.73
2023-01-22T02:41:59.466Z,1.74
2023-01-22T02:44:26.774Z,1.76
2023-01-22T02:46:54.087Z,1.74
2023-01-22T02:49:21.362Z,1.71
2023-01-22T02:51:48.655Z,1.74
2023-01-22T02:54:15.954Z,1.73
2023-01-22T02:56:44.616Z,1.74
2023-01-22T02:59:11.910Z,1.78
2023-01-22T03:01:39.218Z,1.95
2023-01-22T03:04:10.969Z,2.05
2023-01-22T03:06:39.583Z,2.02
2023-01-22T03:09:07.045Z,1.90
2023-01-22T03:11:36.008Z,1.88
2023-01-22T03:14:22.654Z,1.89
2023-01-22T03:17:07.445Z,1.96
2023-01-22T03:19:52.257Z,1.90
2023-01-22T03:22:19.926Z,1.98
2023-01-22T03:24:50.366Z,2.09
2023-01-22T03:27:18.020Z,1.96
2023-01-22T03:29:46.728Z,1.92
2023-01-22T03:32:14.437Z,1.88
2023-01-22T03:34:42.211Z,1.87
2023-01-22T03:37:12.707Z,1.92
2023-01-22T03:39:40.447Z,1.91
2023-01-22T03:42:08.376Z,1.92
2023-01-22T03:44:35.696Z,1.95
2023-01-22T03:47:04.329Z,1.90
2023-01-22T03:49:31.661Z,1.90
2023-01-22T03:51:58.958Z,1.87
2023-01-22T03:54:26.254Z,1.96
2023-01-22T03:56:53.537Z,1.96
2023-01-22T03:59:20.935Z,2.11
2023-01-22T04:01:48.258Z,2.15
2023-01-22T04:04:16.898Z,2.08
2023-01-22T04:06:44.206Z,1.99
2023-01-22T04:09:11.524Z,1.94
2023-01-22T04:11:38.836Z,1.94
2023-01-22T04:14:06.142Z,1.85
2023-01-22T04:16:33.474Z,2.05
2023-01-22T04:19:00.855Z,1.94
2023-01-22T04:21:29.464Z,1.90
2023-01-22T04:23:57.394Z,2.05
2023-01-22T04:26:24.984Z,1.86
2023-01-22T04:28:52.615Z,1.92
2023-01-22T04:31:19.994Z,1.99
2023-01-22T04:33:47.316Z,1.88
2023-01-22T04:36:14.671Z,1.87
2023-01-22T04:38:43.328Z,1.83
2023-01-22T04:41:10.634Z,1.82
2023-01-22T04:43:37.899Z,1.93
2023-01-22T04:46:05.322Z,1.87
2023-01-22T04:48:32.666Z,1.83
2023-01-22T04:51:00.023Z,1.83
2023-01-22T04:53:27.344Z,1.89
2023-01-22T04:55:56.012Z,1.83
2023-01-22T04:58:23.350Z,2.07
2023-01-22T05:00:50.657Z,2.08
2023-01-22T05:03:17.942Z,1.96
2023-01-22T05:05:45.288Z,1.96
2023-01-22T05:08:12.619Z,2.14
2023-01-22T05:10:39.934Z,2.08
2023-01-22T05:13:09.156Z,2.01
2023-01-22T05:15:36.545Z,1.92
2023-01-22T05:18:04.008Z,1.84
2023-01-22T05:20:31.404Z,1.81
2023-01-22T05:22:59.127Z,1.82
2023-01-22T05:25:26.564Z,1.80
2023-01-22T05:27:53.862Z,1.86
2023-01-22T05:30:22.747Z,1.96
2023-01-22T05:32:50.115Z,1.93
2023-01-22T05:35:17.598Z,1.94
2023-01-22T05:37:44.985Z,1.96
2023-01-22T05:40:12.904Z,1.99
2023-01-22T05:42:40.290Z,2.00
2023-01-22T05:45:08.399Z,1.97
2023-01-22T05:47:37.024Z,1.85
2023-01-22T05:50:04.823Z,1.88
2023-01-22T05:52:32.279Z,1.93
2023-01-22T05:54:59.897Z,1.80
2023-01-22T05:57:29.668Z,1.96
2023-01-22T05:59:56.934Z,1.87
2023-01-22T06:02:24.307Z,1.90
2023-01-22T06:04:52.949Z,1.91
2023-01-22T06:07:20.256Z,1.94
2023-01-22T06:09:47.552Z,1.91
2023-01-22T06:12:15.826Z,1.99
2023-01-22T06:14:43.129Z,1.97
2023-01-22T06:17:10.417Z,1.94
2023-01-22T06:19:37.698Z,2.13
2023-01-22T06:22:06.323Z,1.98
2023-01-22T06:24:33.636Z,1.94
2023-01-22T06:27:00.919Z,1.95
2023-01-22T06:29:28.192Z,1.91
2023-01-22T06:31:55.518Z,1.94
2023-01-22T06:34:22.884Z,1.97
2023-01-22T06:36:50.144Z,2.00
2023-01-22T06:39:18.710Z,2.26
2023-01-22T06:41:47.858Z,2.23
2023-01-22T06:44:15.144Z,2.11
2023-01-22T06:46:42.475Z,2.04
2023-01-22T06:49:10.311Z,2.02
2023-01-22T06:51:37.593Z,2.06
2023-01-22T06:54:04.990Z,2.00
2023-01-22T06:56:33.613Z,1.97
2023-01-22T06:59:00.877Z,1.96
2023-01-22T07:01:28.145Z,1.95
2023-01-22T07:03:55.440Z,2.10
2023-01-22T07:06:23.631Z,2.13
2023-01-22T07:08:50.899Z,2.08
2023-01-22T07:11:18.157Z,1.87
2023-01-22T07:13:46.717Z,1.87
2023-01-22T07:16:14.039Z,1.88
2023-01-22T07:18:41.327Z,1.94
2023-01-22T07:21:08.596Z,1.93
2023-01-22T07:23:35.859Z,1.91
2023-01-22T07:26:03.271Z,1.91
2023-01-22T07:28:30.522Z,1.91
2023-01-22T07:30:59.175Z,1.94
2023-01-22T07:33:26.742Z,2.01
2023-01-22T07:35:54.954Z,2.03
2023-01-22T07:38:22.207Z,2.16
2023-01-22T07:40:49.528Z,2.12
2023-01-22T07:43:17.722Z,2.10
2023-01-22T07:45:45.263Z,2.10
2023-01-22T07:48:13.916Z,2.08
2023-01-22T07:50:41.203Z,2.17
2023-01-22T07:53:08.644Z,2.15
2023-01-22T07:55:35.950Z,2.24
2023-01-22T07:58:04.557Z,2.17
2023-01-22T08:00:32.066Z,2.19
2023-01-22T08:02:59.367Z,2.16
2023-01-22T08:05:27.938Z,2.18
2023-01-22T08:07:55.192Z,2.20
2023-01-22T08:10:22.463Z,2.26
2023-01-22T08:12:49.772Z,2.56
2023-01-22T08:15:17.159Z,2.60
2023-01-22T08:17:44.404Z,2.49
2023-01-22T08:20:12.103Z,2.61
2023-01-22T08:22:40.699Z,2.41
2023-01-22T08:25:08.251Z,2.41
2023-01-22T08:27:36.035Z,2.22
2023-01-22T08:30:04.005Z,2.19
2023-01-22T08:33:51.388Z,2.16
2023-01-22T08:36:18.759Z,2.15
2023-01-22T08:38:46.153Z,2.21
2023-01-22T08:41:13.537Z,2.26
2023-01-22T08:43:40.880Z,2.39
2023-01-22T08:46:08.298Z,2.28
2023-01-22T08:48:36.246Z,2.29
2023-01-22T08:51:05.394Z,2.23
2023-01-22T08:53:32.845Z,2.36
2023-01-22T08:56:00.448Z,2.40
2023-01-22T08:58:27.967Z,2.45
2023-01-22T09:00:55.650Z,2.37
2023-01-22T09:03:23.654Z,2.54
2023-01-22T09:05:51.846Z,2.44
2023-01-22T09:08:21.729Z,2.57
2023-01-22T09:10:49.710Z,2.60
2023-01-22T09:13:17.413Z,2.67
2023-01-22T09:15:45.046Z,2.65
2023-01-22T09:18:12.671Z,2.74
2023-01-22T09:20:40.403Z,2.78
2023-01-22T09:23:08.018Z,2.81
2023-01-22T09:25:36.698Z,2.81
2023-01-22T09:28:04.981Z,2.85
2023-01-22T09:30:33.202Z,2.85
2023-01-22T09:33:00.754Z,2.95
2023-01-22T09:35:29.109Z,2.78
2023-01-22T09:37:56.930Z,2.72
2023-01-22T09:40:27.482Z,2.85
2023-01-22T09:43:05.050Z,2.81
2023-01-22T09:45:35.218Z,2.82
2023-01-22T09:48:07.304Z,2.77
2023-01-22T09:50:35.666Z,2.62
2023-01-22T09:53:06.269Z,2.77
2023-01-22T09:55:39.729Z,2.80
2023-01-22T09:58:15.547Z,2.85
2023-01-22T10:00:48.336Z,2.74
2023-01-22T10:03:23.064Z,2.75
2023-01-22T10:05:54.448Z,2.79
2023-01-22T10:08:24.255Z,2.70
2023-01-22T10:10:52.538Z,2.89
2023-01-22T10:13:24.282Z,2.79
2023-01-22T10:15:53.596Z,2.85
2023-01-22T10:18:33.936Z,2.82
2023-01-22T10:21:05.562Z,2.55
2023-01-22T10:23:35.143Z,2.59
2023-01-22T10:26:17.181Z,2.69
2023-01-22T10:28:49.001Z,2.75
2023-01-22T10:31:24.859Z,2.63
2023-01-22T10:33:57.163Z,2.63
2023-01-22T10:36:24.745Z,2.63
2023-01-22T10:39:02.728Z,2.71
2023-01-22T10:41:31.920Z,2.70
2023-01-22T10:44:11.501Z,2.74
2023-01-22T10:46:38.983Z,2.85
2023-01-22T10:49:08.290Z,2.96
2023-01-22T10:51:39.497Z,2.98
2023-01-22T10:54:21.878Z,3.00
2023-01-22T10:56:49.805Z,3.13
2023-01-22T10:59:22.978Z,3.10
2023-01-22T11:01:57.345Z,3.03
2023-01-22T11:04:29.733Z,2.82
2023-01-22T11:07:00.961Z,2.94
2023-01-22T11:09:38.565Z,3.05
2023-01-22T11:12:13.753Z,3.05
2023-01-22T11:14:43.069Z,3.02
2023-01-22T11:17:18.772Z,2.86
2023-01-22T11:19:52.775Z,3.12
2023-01-22T11:22:28.574Z,3.24
2023-01-22T11:24:56.040Z,3.27
2023-01-22T11:27:55.370Z,3.36
2023-01-22T11:30:38.292Z,3.31
2023-01-22T11:33:17.893Z,3.31
2023-01-22T11:35:52.329Z,3.22
2023-01-22T11:38:28.810Z,3.11
2023-01-22T11:41:20.724Z,3.12
2023-01-22T11:44:03.362Z,3.07
2023-01-22T11:46:49.512Z,3.01
2023-01-22T11:49:26.932Z,2.95
2023-01-22T11:52:08.046Z,2.88
2023-01-22T11:54:50.570Z,2.82
2023-01-22T11:57:22.264Z,2.86
2023-01-22T12:00:03.098Z,2.72
2023-01-22T12:02:47.485Z,2.92
2023-01-22T12:05:27.565Z,2.91
2023-01-22T12:08:08.958Z,2.65
2023-01-22T12:10:52.964Z,2.86
2023-01-22T12:13:37.938Z,2.76
2023-01-22T12:16:13.159Z,2.85
2023-01-22T12:19:06.159Z,2.77
2023-01-22T12:21:49.481Z,2.84
2023-01-22T12:24:25.003Z,2.97
2023-01-22T12:26:58.467Z,2.98
2023-01-22T12:29:30.749Z,2.97
2023-01-22T12:32:04.869Z,3.10
2023-01-22T12:34:39.869Z,3.17
2023-01-22T12:37:08.683Z,3.10
2023-01-22T12:39:39.887Z,2.89
2023-01-22T12:42:23.763Z,3.05
2023-01-22T12:45:06.525Z,3.05
2023-01-22T12:47:42.177Z,3.02
2023-01-22T12:50:19.647Z,3.09
2023-01-22T12:52:57.955Z,3.01
2023-01-22T12:55:31.747Z,3.00
2023-01-22T12:57:59.788Z,3.00
2023-01-22T13:00:30.505Z,3.01
2023-01-22T13:02:59.080Z,2.96
2023-01-22T13:05:45.500Z,2.82
2023-01-22T13:08:37.262Z,2.75
2023-01-22T13:11:07.295Z,2.79
2023-01-22T13:13:40.740Z,2.66
2023-01-22T13:16:19.926Z,2.62
2023-01-22T13:18:50.083Z,2.72
2023-01-22T13:21:24.609Z,2.76
2023-01-22T13:23:52.378Z,2.63
2023-01-22T13:26:22.054Z,2.60
2023-01-22T13:28:54.837Z,2.54
2023-01-22T13:31:22.352Z,2.53
2023-01-22T13:33:54.277Z,2.69
2023-01-22T13:36:23.476Z,2.67
2023-01-22T13:38:56.531Z,2.76
2023-01-22T13:41:31.314Z,2.53
2023-01-22T13:44:02.844Z,2.53
2023-01-22T13:46:30.671Z,2.63
2023-01-22T13:49:07.114Z,2.41
2023-01-22T13:51:36.818Z,2.50
2023-01-22T13:54:05.924Z,2.57
2023-01-22T13:56:33.516Z,2.55
2023-01-22T13:59:16.037Z,2.59
2023-01-22T14:01:43.766Z,2.44
2023-01-22T14:04:27.166Z,2.51
2023-01-22T14:06:56.316Z,2.55
2023-01-22T14:09:28.888Z,2.54
2023-01-22T14:11:56.938Z,2.48
2023-01-22T14:14:24.584Z,2.45
2023-01-22T14:16:52.604Z,2.60
2023-01-22T14:19:20.001Z,2.44
2023-01-22T14:21:47.357Z,2.56
2023-01-22T14:24:16.029Z,2.61
2023-01-22T14:26:43.493Z,2.67
2023-01-22T14:29:12.833Z,2.60
2023-01-22T14:31:40.364Z,2.49
2023-01-22T14:34:07.941Z,2.64
2023-01-22T14:36:35.299Z,2.41
2023-01-22T14:39:02.753Z,2.40
2023-01-22T14:41:31.429Z,2.45
2023-01-22T14:43:58.805Z,2.49
2023-01-22T14:46:26.168Z,2.43
2023-01-22T14:48:53.674Z,2.50
2023-01-22T14:51:21.124Z,2.46
2023-01-22T14:53:48.551Z,2.43
2023-01-22T14:56:15.937Z,2.26
2023-01-22T14:58:44.701Z,2.36
2023-01-22T15:01:16.749Z,2.36
2023-01-22T15:03:44.147Z,2.37
2023-01-22T15:06:11.504Z,2.40
2023-01-22T15:08:38.890Z,2.42
2023-01-22T15:11:06.424Z,2.58
2023-01-22T15:13:34.353Z,2.49
2023-01-22T15:16:08.253Z,2.44
2023-01-22T15:18:36.277Z,2.54
2023-01-22T15:21:04.632Z,2.59
2023-01-22T15:23:32.486Z,2.54
2023-01-22T15:26:01.151Z,2.46
2023-01-22T15:28:30.783Z,2.40
2023-01-22T15:31:07.369Z,2.52
2023-01-22T15:33:37.985Z,2.40
2023-01-22T15:36:06.074Z,2.33
2023-01-22T15:38:33.394Z,2.37
2023-01-22T15:41:05.583Z,2.47
2023-01-22T15:43:33.555Z,2.23
2023-01-22T15:46:00.893Z,2.24
2023-01-22T15:48:28.334Z,2.36
2023-01-22T15:51:06.933Z,2.40
2023-01-22T15:53:34.353Z,2.46
2023-01-22T15:56:02.354Z,2.56
2023-01-22T15:58:29.632Z,2.60
2023-01-22T16:00:57.470Z,2.54
2023-01-22T16:03:24.921Z,2.49
2023-01-22T16:05:52.339Z,2.57
2023-01-22T16:08:21.577Z,2.61
2023-01-22T16:10:48.970Z,2.61
2023-01-22T16:13:16.341Z,2.58
2023-01-22T16:15:43.731Z,2.59
2023-01-22T16:18:11.097Z,2.68
2023-01-22T16:20:38.448Z,2.81
2023-01-22T16:23:06.857Z,2.79
2023-01-22T16:25:35.536Z,2.84
2023-01-22T16:28:02.910Z,2.84
2023-01-22T16:30:30.279Z,2.88
2023-01-22T16:32:57.676Z,2.86
2023-01-22T16:35:25.082Z,3.04
2023-01-22T16:37:52.488Z,3.07
2023-01-22T16:40:20.151Z,3.17
2023-01-22T16:42:59.248Z,3.24
2023-01-22T16:45:26.640Z,3.37
2023-01-22T16:47:53.981Z,3.37
2023-01-22T16:50:21.383Z,3.32
2023-01-22T16:52:48.757Z,3.33
2023-01-22T16:55:16.141Z,3.52
2023-01-22T16:57:43.505Z,3.42
2023-01-22T17:00:13.385Z,3.41
2023-01-22T17:02:40.795Z,3.44
2023-01-22T17:05:12.850Z,3.31
2023-01-22T17:07:40.251Z,3.18
2023-01-22T17:10:08.892Z,3.15
2023-01-22T17:12:36.249Z,3.20
2023-01-22T17:15:03.636Z,3.11
2023-01-22T17:17:32.343Z,2.93
2023-01-22T17:19:59.740Z,3.07
2023-01-22T17:22:27.373Z,3.11
2023-01-22T17:24:54.906Z,3.07
2023-01-22T17:27:22.313Z,3.06
2023-01-22T17:29:49.831Z,2.96
2023-01-22T17:32:17.256Z,3.05
2023-01-22T17:37:38.279Z,3.11
2023-01-22T17:40:06.925Z,3.18
2023-01-22T17:42:34.432Z,3.13
2023-01-22T17:45:01.867Z,3.20
2023-01-22T17:47:29.442Z,3.22
2023-01-22T17:49:58.158Z,3.14
2023-01-22T17:52:25.536Z,3.08
2023-01-22T17:54:53.918Z,3.13
2023-01-22T17:57:21.343Z,3.12
2023-01-22T17:59:48.912Z,3.07
2023-01-22T18:02:16.286Z,2.74
2023-01-22T18:04:43.624Z,2.61
2023-01-22T18:07:12.598Z,2.45
2023-01-22T18:09:40.008Z,2.82
2023-01-22T18:12:07.601Z,2.70
2023-01-22T18:14:35.309Z,2.49
2023-01-22T18:17:02.757Z,2.81
2023-01-22T18:19:30.163Z,2.67
2023-01-22T18:21:57.541Z,2.64
2023-01-22T18:24:26.760Z,2.59
2023-01-22T18:26:54.820Z,2.71
2023-01-22T18:29:22.246Z,2.76
2023-01-22T18:31:49.686Z,2.92
2023-01-22T18:34:17.089Z,2.94
2023-01-22T18:36:44.533Z,2.91
2023-01-22T18:39:14.883Z,2.93
2023-01-22T18:41:44.980Z,3.03
2023-01-22T18:44:14.482Z,2.70
2023-01-22T18:46:47.940Z,2.97
2023-01-22T18:49:19.426Z,2.96
2023-01-22T18:51:47.601Z,2.69
2023-01-22T18:54:15.498Z,2.96
2023-01-22T18:56:44.217Z,2.81
2023-01-22T18:59:12.917Z,2.64
2023-01-22T19:01:42.716Z,2.63
2023-01-22T19:04:17.948Z,2.52
2023-01-22T19:06:48.208Z,2.30
2023-01-22T19:09:16.135Z,2.30
2023-01-22T19:11:47.840Z,2.22
2023-01-22T19:14:17.089Z,2.26
2023-01-22T19:16:48.094Z,2.12
2023-01-22T19:19:16.816Z,2.07
2023-01-22T19:21:47.061Z,2.37
2023-01-22T19:24:16.274Z,2.13
2023-01-22T19:26:46.785Z,2.16
2023-01-22T19:29:17.165Z,2.01
2023-01-22T19:31:46.789Z,2.10
2023-01-22T19:34:23.029Z,2.12
2023-01-22T19:36:52.047Z,2.17
2023-01-22T19:39:20.160Z,2.21
2023-01-22T19:41:49.124Z,2.07
2023-01-22T19:44:16.565Z,2.09
2023-01-22T19:46:44.205Z,1.88
2023-01-22T19:49:13.589Z,1.91
2023-01-22T19:51:41.081Z,1.84
2023-01-22T19:54:08.816Z,1.84
2023-01-22T19:56:39.880Z,1.88
2023-01-22T19:59:12.257Z,1.93
2023-01-22T20:01:40.029Z,1.93
2023-01-22T20:04:12.427Z,1.87
2023-01-22T20:06:40.966Z,1.91
2023-01-22T20:09:08.345Z,1.81
2023-01-22T20:11:35.719Z,1.84
2023-01-22T20:14:03.346Z,1.87
2023-01-22T20:16:32.082Z,1.95
2023-01-22T20:18:59.549Z,1.92
2023-01-22T20:21:27.823Z,1.87
2023-01-22T20:23:55.311Z,1.86
2023-01-22T20:26:23.852Z,2.07
2023-01-22T20:28:51.935Z,2.40
2023-01-22T20:31:23.405Z,2.44
2023-01-22T20:33:53.279Z,2.51
2023-01-22T20:36:22.097Z,2.26
2023-01-22T20:38:52.820Z,2.07
2023-01-22T20:41:21.414Z,2.07
2023-01-22T20:43:48.909Z,2.15
2023-01-22T20:46:18.131Z,2.40
2023-01-22T20:48:45.779Z,2.34
2023-01-22T20:51:17.051Z,2.40
2023-01-22T20:53:45.396Z,2.46
2023-01-22T20:56:15.173Z,2.54
2023-01-22T20:58:43.116Z,2.60
2023-01-22T21:01:14.450Z,2.53
2023-01-22T21:03:42.390Z,2.72
2023-01-22T21:06:13.850Z,2.80
2023-01-22T21:08:47.621Z,2.66
2023-01-22T21:11:17.772Z,2.77
2023-01-22T21:13:45.208Z,2.79
2023-01-22T21:16:14.663Z,2.77
2023-01-22T21:18:44.373Z,2.88
2023-01-22T21:21:13.158Z,2.82
2023-01-22T21:23:40.872Z,2.83
2023-01-22T21:26:12.734Z,2.79
2023-01-22T21:28:40.507Z,2.72
2023-01-22T21:31:09.343Z,2.91
2023-01-22T21:33:37.224Z,2.91
2023-01-22T21:36:05.931Z,2.92
2023-01-22T21:38:33.437Z,2.95
2023-01-22T21:41:05.567Z,2.92
2023-01-22T21:43:52.402Z,2.89
2023-01-22T22:00:54.667Z,2.95
2023-01-22T22:03:22.568Z,2.88
2023-01-22T22:05:56.017Z,2.92
2023-01-22T22:08:23.403Z,2.95
2023-01-22T22:10:50.979Z,2.93
2023-01-22T22:13:18.648Z,2.94
2023-01-22T22:15:46.682Z,2.96
2023-01-22T22:18:15.512Z,2.98
2023-01-22T22:20:42.890Z,2.92
2023-01-22T22:23:10.374Z,3.01
2023-01-22T22:25:37.766Z,2.89
2023-01-22T22:28:05.628Z,2.92
2023-01-22T22:30:33.055Z,2.91
2023-01-22T22:33:00.408Z,2.90
2023-01-22T22:35:29.073Z,2.93
2023-01-22T22:37:56.618Z,2.98
2023-01-22T22:40:24.111Z,2.91
2023-01-22T22:42:51.460Z,2.86
2023-01-22T22:45:18.829Z,2.88
2023-01-22T22:47:46.187Z,2.75
2023-01-22T22:50:13.583Z,2.82
2023-01-22T22:52:43.388Z,2.85
2023-01-22T22:55:11.253Z,2.83
2023-01-22T22:57:38.645Z,2.69
2023-01-22T23:00:11.770Z,2.69
2023-01-22T23:02:39.145Z,2.78
2023-01-22T23:05:07.589Z,2.78
2023-01-22T23:07:34.928Z,2.77
2023-01-22T23:10:03.655Z,2.70
2023-01-22T23:12:31.181Z,2.69
2023-01-22T23:14:58.555Z,2.74
2023-01-22T23:17:25.982Z,2.71
2023-01-22T23:19:53.377Z,2.69
2023-01-22T23:22:20.765Z,2.75
2023-01-22T23:24:48.104Z,2.69
2023-01-22T23:27:16.815Z,2.57
2023-01-22T23:29:44.153Z,2.62
2023-01-22T23:32:11.527Z,2.61
2023-01-22T23:34:38.874Z,2.62
2023-01-22T23:37:06.309Z,2.68
2023-01-22T23:39:33.675Z,2.62
2023-01-22T23:42:01.021Z,2.65
2023-01-22T23:44:29.723Z,2.72
2023-01-22T23:46:57.091Z,2.65
2023-01-22T23:49:24.543Z,2.72
2023-01-22T23:51:51.913Z,2.68
2023-01-22T23:54:19.291Z,2.80
2023-01-22T23:56:46.680Z,2.76
2023-01-22T23:59:14.047Z,2.72
